createdAt,value
2023-04-05T00:00:54.110Z,1.67
2023-04-05T00:03:24.336Z,1.60
2023-04-05T00:05:54.759Z,1.71
2023-04-05T00:08:26.965Z,1.69
2023-04-05T00:10:54.898Z,1.68
2023-04-05T00:13:22.882Z,1.65
2023-04-05T00:15:50.928Z,1.61
2023-04-05T00:18:23.829Z,1.59
2023-04-05T00:20:53.300Z,1.59
2023-04-05T00:23:22.817Z,1.62
2023-04-05T00:25:50.388Z,1.65
2023-04-05T00:28:17.954Z,1.66
2023-04-05T00:30:45.589Z,1.67
2023-04-05T00:33:13.664Z,1.77
2023-04-05T00:35:41.296Z,1.70
2023-04-05T00:38:10.337Z,1.59
2023-04-05T00:40:38.017Z,1.78
2023-04-05T00:43:05.611Z,1.90
2023-04-05T00:45:33.758Z,2.04
2023-04-05T00:48:01.621Z,1.81
2023-04-05T00:50:30.864Z,1.98
2023-04-05T00:52:58.640Z,1.75
2023-04-05T00:55:27.826Z,1.65
2023-04-05T00:57:56.252Z,1.79
2023-04-05T01:00:24.515Z,1.79
2023-04-05T01:02:53.884Z,1.81
2023-04-05T01:05:30.158Z,1.87
2023-04-05T01:08:01.207Z,1.69
2023-04-05T01:10:36.999Z,1.60
2023-04-05T01:13:04.949Z,1.56
2023-04-05T01:15:32.826Z,1.54
2023-04-05T01:18:02.083Z,1.47
2023-04-05T01:20:35.002Z,1.50
2023-04-05T01:23:27.668Z,1.49
2023-04-05T01:26:39.955Z,1.38
2023-04-05T01:29:37.966Z,1.61
2023-04-05T01:32:11.663Z,1.36
2023-04-05T01:34:47.131Z,1.30
2023-04-05T01:37:17.233Z,1.38
2023-04-05T01:39:47.385Z,1.24
2023-04-05T01:42:15.033Z,1.29
2023-04-05T01:44:44.193Z,1.29
2023-04-05T01:47:11.754Z,1.22
2023-04-05T01:49:39.358Z,1.11
2023-04-05T01:52:06.934Z,1.12
2023-04-05T01:54:34.488Z,1.08
2023-04-05T01:57:02.128Z,1.17
2023-04-05T01:59:29.766Z,1.07
2023-04-05T02:01:59.003Z,1.22
2023-04-05T02:04:26.745Z,1.17
2023-04-05T02:06:54.366Z,1.11
2023-04-05T02:09:21.937Z,0.95
2023-04-05T02:11:49.549Z,0.96
2023-04-05T02:14:17.100Z,0.87
2023-04-05T02:16:44.761Z,0.90
2023-04-05T02:19:15.865Z,1.01
2023-04-05T02:21:43.572Z,0.93
2023-04-05T02:24:11.140Z,1.08
2023-04-05T02:26:38.736Z,0.89
2023-04-05T02:29:06.382Z,0.83
2023-04-05T02:31:34.149Z,0.78
2023-04-05T02:34:01.872Z,0.84
2023-04-05T02:36:30.824Z,0.80
2023-04-05T02:38:58.424Z,0.80
2023-04-05T02:41:26.015Z,0.99
2023-04-05T02:43:53.565Z,0.78
2023-04-05T02:46:21.276Z,0.62
2023-04-05T02:48:48.887Z,0.64
2023-04-05T02:51:16.473Z,0.71
2023-04-05T02:53:45.537Z,0.68
2023-04-05T02:56:14.244Z,0.60
2023-04-05T02:58:42.395Z,0.51
2023-04-05T03:01:10.132Z,0.52
2023-04-05T03:03:40.207Z,0.45
2023-04-05T03:06:10.213Z,0.37
2023-04-05T03:08:38.805Z,0.25
2023-04-05T03:11:07.880Z,0.36
2023-04-05T03:13:35.974Z,0.35
2023-04-05T03:16:03.570Z,0.41
2023-04-05T03:18:31.177Z,0.32
2023-04-05T03:20:59.183Z,0.33
2023-04-05T03:23:29.686Z,0.37
2023-04-05T03:26:00.485Z,0.37
2023-04-05T03:28:32.177Z,0.31
2023-04-05T03:31:00.209Z,0.44
2023-04-05T03:33:27.871Z,0.38
2023-04-05T03:35:55.514Z,0.52
2023-04-05T03:38:23.162Z,0.52
2023-04-05T03:40:50.797Z,0.51
2023-04-05T03:43:18.312Z,0.34
2023-04-05T03:45:47.277Z,0.24
2023-04-05T03:48:19.909Z,0.17
2023-04-05T03:50:47.533Z,0.17
2023-04-05T03:53:19.030Z,0.19
2023-04-05T03:55:50.362Z,0.23
2023-04-05T03:58:18.145Z,0.26
2023-04-05T04:00:47.224Z,0.22
2023-04-05T04:03:15.112Z,0.11
2023-04-05T04:05:43.087Z,-0.05
2023-04-05T04:08:11.355Z,0.02
2023-04-05T04:10:38.934Z,0.06
2023-04-05T04:15:34.090Z,0.21
2023-04-05T04:18:03.027Z,0.30
2023-04-05T04:20:30.861Z,0.01
2023-04-05T04:22:58.903Z,0.01
2023-04-05T04:25:30.743Z,0.02
2023-04-05T04:27:59.047Z,0.01
2023-04-05T04:30:26.945Z,-0.04
2023-04-05T04:32:55.227Z,-0.02
2023-04-05T04:35:25.849Z,-0.04
2023-04-05T04:37:57.873Z,0.01
2023-04-05T04:40:26.716Z,-0.12
2023-04-05T04:42:54.647Z,-0.19
2023-04-05T04:45:22.300Z,-0.16
2023-04-05T04:47:52.714Z,-0.13
2023-04-05T04:50:22.073Z,-0.03
2023-04-05T04:52:51.046Z,-0.13
2023-04-05T04:55:18.608Z,-0.11
2023-04-05T04:57:46.131Z,-0.03
2023-04-05T05:00:15.719Z,-0.13
2023-04-05T05:02:44.255Z,-0.11
2023-04-05T05:05:12.513Z,-0.02
2023-04-05T05:07:41.818Z,-0.11
2023-04-05T05:10:12.419Z,-0.12
2023-04-05T05:15:09.146Z,0.01
2023-04-05T05:17:37.473Z,0.06
2023-04-05T05:20:11.041Z,0.10
2023-04-05T05:22:39.429Z,-0.04
2023-04-05T05:25:08.658Z,0.07
2023-04-05T05:27:37.573Z,-0.02
2023-04-05T05:30:05.841Z,0.05
2023-04-05T05:32:33.485Z,0.10
2023-04-05T05:35:01.114Z,0.20
2023-04-05T05:37:31.211Z,0.19
2023-04-05T05:39:58.923Z,0.17
2023-04-05T05:42:27.093Z,0.29
2023-04-05T05:44:55.982Z,0.34
2023-04-05T05:47:23.661Z,0.32
2023-04-05T05:49:51.216Z,0.40
2023-04-05T05:52:18.870Z,0.58
2023-04-05T05:54:47.131Z,0.65
2023-04-05T05:57:14.740Z,0.58
2023-04-05T05:59:42.298Z,0.67
2023-04-05T06:02:11.974Z,0.80
2023-04-05T06:04:39.717Z,0.79
2023-04-05T06:07:07.373Z,0.63
2023-04-05T06:09:35.248Z,0.80
2023-04-05T06:12:02.914Z,0.73
2023-04-05T06:14:31.140Z,0.74
2023-04-05T06:16:58.729Z,0.91
2023-04-05T06:19:27.800Z,0.99
2023-04-05T06:21:56.016Z,0.93
2023-04-05T06:24:23.582Z,0.90
2023-04-05T06:26:51.956Z,0.95
2023-04-05T06:29:19.557Z,1.02
2023-04-05T06:31:48.356Z,1.03
2023-04-05T06:34:16.047Z,1.06
2023-04-05T06:36:45.043Z,1.17
2023-04-05T06:39:12.600Z,1.18
2023-04-05T06:41:40.227Z,1.37
2023-04-05T06:44:07.827Z,1.49
2023-04-05T06:46:35.376Z,1.61
2023-04-05T06:49:04.125Z,1.52
2023-04-05T06:51:31.999Z,1.63
2023-04-05T06:54:00.886Z,1.51
2023-04-05T06:56:28.574Z,1.46
2023-04-05T06:58:58.054Z,1.48
2023-04-05T07:01:26.306Z,1.65
2023-04-05T07:03:54.281Z,1.65
2023-04-05T07:06:23.838Z,1.64
2023-04-05T07:08:52.536Z,1.85
2023-04-05T07:11:21.958Z,1.88
2023-04-05T07:13:49.616Z,2.00
2023-04-05T07:16:19.200Z,2.25
2023-04-05T07:18:46.841Z,2.23
2023-04-05T07:21:14.558Z,2.18
2023-04-05T07:23:42.127Z,2.48
2023-04-05T07:26:09.751Z,2.34
2023-04-05T07:28:38.751Z,2.48
2023-04-05T07:31:07.573Z,2.52
2023-04-05T07:33:35.293Z,2.35
2023-04-05T07:36:03.460Z,2.75
2023-04-05T07:38:31.096Z,2.65
2023-04-05T07:40:58.705Z,2.84
2023-04-05T07:43:26.805Z,2.98
2023-04-05T07:46:02.313Z,2.99
2023-04-05T07:48:30.234Z,3.11
2023-04-05T07:50:58.399Z,3.20
2023-04-05T07:53:26.156Z,3.39
2023-04-05T07:55:53.956Z,3.43
2023-04-05T07:58:22.567Z,3.30
2023-04-05T08:00:50.449Z,3.51
2023-04-05T08:03:19.440Z,3.71
2023-04-05T08:05:47.082Z,3.85
2023-04-05T08:08:14.687Z,3.88
2023-04-05T08:10:42.581Z,4.20
2023-04-05T08:13:10.422Z,3.95
2023-04-05T08:15:38.055Z,4.36
2023-04-05T08:18:05.632Z,4.43
2023-04-05T08:20:39.262Z,4.62
2023-04-05T08:23:07.808Z,4.56
2023-04-05T08:25:35.426Z,4.56
2023-04-05T08:28:02.953Z,4.63
2023-04-05T08:30:30.662Z,4.64
2023-04-05T08:32:58.235Z,4.88
2023-04-05T08:35:25.969Z,4.93
2023-04-05T08:37:54.928Z,5.04
2023-04-05T08:40:22.521Z,5.01
2023-04-05T08:42:54.305Z,5.02
2023-04-05T08:45:21.904Z,5.35
2023-04-05T08:47:50.613Z,5.31
2023-04-05T08:50:18.202Z,5.39
2023-04-05T08:52:49.777Z,4.99
2023-04-05T08:55:18.819Z,5.35
2023-04-05T08:57:55.222Z,5.42
2023-04-05T09:00:23.074Z,5.56
2023-04-05T09:02:52.325Z,5.57
2023-04-05T09:05:21.065Z,5.66
2023-04-05T09:07:48.930Z,5.86
2023-04-05T09:10:20.444Z,5.85
2023-04-05T09:12:48.632Z,5.58
2023-04-05T09:15:17.714Z,5.69
2023-04-05T09:17:45.581Z,5.64
2023-04-05T09:20:13.291Z,5.98
2023-04-05T09:22:45.313Z,6.06
2023-04-05T09:25:13.027Z,6.29
2023-04-05T09:27:57.340Z,6.13
2023-04-05T09:30:25.884Z,6.42
2023-04-05T09:32:54.939Z,6.50
2023-04-05T09:35:24.083Z,6.12
2023-04-05T09:37:54.253Z,6.42
2023-04-05T09:40:22.409Z,6.63
2023-04-05T09:42:50.795Z,6.46
2023-04-05T09:45:19.919Z,6.70
2023-04-05T09:47:56.068Z,6.55
2023-04-05T09:50:23.799Z,6.78
2023-04-05T09:52:52.441Z,7.03
2023-04-05T09:55:29.783Z,7.06
2023-04-05T09:57:57.441Z,7.45
2023-04-05T10:00:26.413Z,7.18
2023-04-05T10:02:55.184Z,6.95
2023-04-05T10:05:25.492Z,7.08
2023-04-05T10:07:53.345Z,7.53
2023-04-05T10:10:23.180Z,7.28
2023-04-05T10:12:51.390Z,7.25
2023-04-05T10:15:19.385Z,7.28
2023-04-05T10:17:51.515Z,7.42
2023-04-05T10:20:19.947Z,7.52
2023-04-05T10:23:01.935Z,7.61
2023-04-05T10:25:38.270Z,7.34
2023-04-05T10:28:06.932Z,7.10
2023-04-05T10:30:37.695Z,7.12
2023-04-05T10:33:15.603Z,7.38
2023-04-05T10:35:51.583Z,7.41
2023-04-05T10:38:24.213Z,7.11
2023-04-05T10:40:55.487Z,7.09
2023-04-05T10:43:26.169Z,7.28
2023-04-05T10:45:55.646Z,7.68
2023-04-05T10:48:38.168Z,7.82
2023-04-05T10:51:06.196Z,7.84
2023-04-05T10:53:35.241Z,7.80
2023-04-05T10:56:02.899Z,7.74
2023-04-05T10:58:31.271Z,8.00
2023-04-05T11:00:59.316Z,7.72
2023-04-05T11:03:47.394Z,7.57
2023-04-05T11:06:23.779Z,7.78
2023-04-05T11:08:55.280Z,8.00
2023-04-05T11:11:24.223Z,8.20
2023-04-05T11:13:53.863Z,8.21
2023-04-05T11:16:22.218Z,8.03
2023-04-05T11:18:53.430Z,8.29
2023-04-05T11:21:22.908Z,8.29
2023-04-05T11:24:07.014Z,8.30
2023-04-05T11:26:54.281Z,8.64
2023-04-05T11:29:50.642Z,8.84
2023-04-05T11:32:18.544Z,8.84
2023-04-05T11:34:59.803Z,9.17
2023-04-05T11:37:55.365Z,9.51
2023-04-05T11:40:28.314Z,9.14
2023-04-05T11:43:13.704Z,9.42
2023-04-05T11:45:43.379Z,9.31
2023-04-05T11:48:13.143Z,9.49
2023-04-05T11:50:43.110Z,9.07
2023-04-05T11:53:14.809Z,9.44
2023-04-05T11:55:43.797Z,9.34
2023-04-05T11:58:15.999Z,9.15
2023-04-05T12:00:44.342Z,8.99
2023-04-05T12:03:13.217Z,8.89
2023-04-05T12:05:50.700Z,8.99
2023-04-05T12:08:18.742Z,9.09
2023-04-05T12:10:46.779Z,8.82
2023-04-05T12:13:14.533Z,8.96
2023-04-05T12:15:42.437Z,9.28
2023-04-05T12:18:19.135Z,9.19
2023-04-05T12:20:47.108Z,9.35
2023-04-05T12:23:17.492Z,8.93
2023-04-05T12:25:47.653Z,9.17
2023-04-05T12:28:15.365Z,9.11
2023-04-05T12:30:52.960Z,8.40
2023-04-05T12:33:30.391Z,9.13
2023-04-05T12:35:58.374Z,9.27
2023-04-05T12:38:30.880Z,9.54
2023-04-05T12:41:00.978Z,9.93
2023-04-05T12:43:39.375Z,9.68
2023-04-05T12:46:10.334Z,9.70
2023-04-05T12:48:38.547Z,10.00
2023-04-05T12:51:15.510Z,10.23
2023-04-05T12:53:48.131Z,10.27
2023-04-05T12:56:16.681Z,10.02
2023-04-05T12:58:44.337Z,10.35
2023-04-05T13:01:12.791Z,10.22
2023-04-05T13:03:40.577Z,10.14
2023-04-05T13:06:10.172Z,10.23
2023-04-05T13:08:37.987Z,9.83
2023-04-05T13:11:07.159Z,9.50
2023-04-05T13:13:35.223Z,9.78
2023-04-05T13:16:03.008Z,9.49
2023-04-05T13:18:30.746Z,9.79
2023-04-05T13:20:58.372Z,10.05
2023-04-05T13:23:25.924Z,9.98
2023-04-05T13:25:53.595Z,10.01
2023-04-05T13:28:22.524Z,10.56
2023-04-05T13:30:51.262Z,10.06
2023-04-05T13:33:20.241Z,10.38
2023-04-05T13:35:48.147Z,10.81
2023-04-05T13:38:15.971Z,10.50
2023-04-05T13:40:43.562Z,10.90
2023-04-05T13:43:11.151Z,10.72
2023-04-05T13:45:40.589Z,11.06
2023-04-05T13:48:08.485Z,10.75
2023-04-05T13:50:36.306Z,10.59
2023-04-05T13:53:03.830Z,10.24
2023-04-05T13:55:31.587Z,10.49
2023-04-05T13:57:59.170Z,10.62
2023-04-05T14:00:26.807Z,10.51
2023-04-05T14:02:56.046Z,10.38
2023-04-05T14:05:23.803Z,10.64
2023-04-05T14:07:51.643Z,10.65
2023-04-05T14:10:21.506Z,10.62
2023-04-05T14:12:49.316Z,10.61
2023-04-05T14:15:17.132Z,10.58
2023-04-05T14:17:45.200Z,10.56
2023-04-05T14:20:14.555Z,10.38
2023-04-05T14:22:42.342Z,10.13
2023-04-05T14:25:10.744Z,10.47
2023-04-05T14:27:42.206Z,10.72
2023-04-05T14:30:11.129Z,10.22
2023-04-05T14:32:39.078Z,9.80
2023-04-05T14:35:07.616Z,9.96
2023-04-05T14:37:36.636Z,9.79
2023-04-05T14:40:04.793Z,10.35
2023-04-05T14:42:47.842Z,10.24
2023-04-05T14:45:16.700Z,10.45
2023-04-05T14:47:44.478Z,10.24
2023-04-05T14:50:12.452Z,9.89
2023-04-05T14:52:41.605Z,9.94
2023-04-05T14:55:12.378Z,10.11
2023-04-05T14:57:40.225Z,10.03
2023-04-05T15:00:09.489Z,10.17
2023-04-05T15:02:38.162Z,10.04
2023-04-05T15:05:06.830Z,10.19
2023-04-05T15:07:34.770Z,10.33
2023-04-05T15:10:04.375Z,10.30
2023-04-05T15:12:33.025Z,10.20
2023-04-05T15:15:02.115Z,10.21
2023-04-05T15:17:29.971Z,10.04
2023-04-05T15:19:57.680Z,10.12
2023-04-05T15:22:25.419Z,9.63
2023-04-05T15:24:53.137Z,9.82
2023-04-05T15:27:22.403Z,10.06
2023-04-05T15:29:50.464Z,10.23
2023-04-05T15:32:18.313Z,10.33
2023-04-05T15:34:46.117Z,10.35
2023-04-05T15:37:13.987Z,10.40
2023-04-05T15:39:41.752Z,9.99
2023-04-05T15:42:09.497Z,9.91
2023-04-05T15:44:38.928Z,9.90
2023-04-05T15:47:06.664Z,9.74
2023-04-05T15:49:34.393Z,9.65
2023-04-05T15:52:02.076Z,9.83
2023-04-05T15:54:29.806Z,9.94
2023-04-05T15:56:58.318Z,10.02
2023-04-05T15:59:26.144Z,9.83
2023-04-05T16:01:55.389Z,9.91
2023-04-05T16:04:23.264Z,9.77
2023-04-05T16:06:51.073Z,9.85
2023-04-05T16:09:18.784Z,9.69
2023-04-05T16:11:46.604Z,9.84
2023-04-05T16:14:14.451Z,9.81
2023-04-05T16:16:52.879Z,9.91
2023-04-05T16:19:26.228Z,9.77
2023-04-05T16:21:53.987Z,9.69
2023-04-05T16:24:21.698Z,9.71
2023-04-05T16:26:49.481Z,9.54
2023-04-05T16:29:17.206Z,9.64
2023-04-05T16:31:47.281Z,9.64
2023-04-05T16:34:15.531Z,9.88
2023-04-05T16:36:44.649Z,9.87
2023-04-05T16:39:12.638Z,9.74
2023-04-05T16:41:40.516Z,9.84
2023-04-05T16:44:08.627Z,9.97
2023-04-05T16:46:36.427Z,9.70
2023-04-05T16:49:04.381Z,9.84
2023-04-05T16:51:32.491Z,9.68
2023-04-05T16:54:01.674Z,9.59
2023-04-05T16:56:29.489Z,9.59
2023-04-05T16:58:57.457Z,9.47
2023-04-05T17:01:26.507Z,9.52
2023-04-05T17:03:54.274Z,9.50
2023-04-05T17:06:22.204Z,9.47
2023-04-05T17:08:49.917Z,9.41
2023-04-05T17:11:18.964Z,9.32
2023-04-05T17:13:47.303Z,9.19
2023-04-05T17:16:16.089Z,9.27
2023-04-05T17:18:43.859Z,9.25
2023-04-05T17:21:12.436Z,9.12
2023-04-05T17:23:40.684Z,9.23
2023-04-05T17:26:08.392Z,9.00
2023-04-05T17:28:37.918Z,8.78
2023-04-05T17:31:06.783Z,8.73
2023-04-05T17:33:35.011Z,8.49
2023-04-05T17:36:04.144Z,8.55
2023-04-05T17:38:31.916Z,8.36
2023-04-05T17:40:59.549Z,8.21
2023-04-05T17:43:27.434Z,8.16
2023-04-05T17:45:57.073Z,8.27
2023-04-05T17:48:27.272Z,8.10
2023-04-05T17:50:55.116Z,7.97
2023-04-05T17:53:22.878Z,8.01
2023-04-05T17:55:50.759Z,7.93
2023-04-05T17:58:19.202Z,7.94
2023-04-05T18:00:46.854Z,7.78
2023-04-05T18:03:17.901Z,7.55
2023-04-05T18:05:51.239Z,7.81
2023-04-05T18:08:19.113Z,7.63
2023-04-05T18:10:46.797Z,7.65
2023-04-05T18:13:15.720Z,7.31
2023-04-05T18:15:43.416Z,7.10
2023-04-05T18:18:11.863Z,6.96
2023-04-05T18:20:41.427Z,6.94
2023-04-05T18:23:09.252Z,6.88
2023-04-05T18:25:36.977Z,6.82
2023-04-05T18:28:15.515Z,6.68
2023-04-05T18:30:50.581Z,6.65
2023-04-05T18:33:18.623Z,6.58
2023-04-05T18:35:51.531Z,6.53
2023-04-05T18:38:19.349Z,6.50
2023-04-05T18:40:47.083Z,6.49
2023-04-05T18:43:15.127Z,6.33
2023-04-05T18:45:42.872Z,6.28
2023-04-05T18:48:12.000Z,6.20
2023-04-05T18:50:40.118Z,6.16
2023-04-05T18:53:09.553Z,6.21
2023-04-05T18:55:37.918Z,6.22
2023-04-05T18:58:05.984Z,6.14
2023-04-05T19:00:34.897Z,6.07
2023-04-05T19:03:02.820Z,6.00
2023-04-05T19:05:30.572Z,5.99
2023-04-05T19:07:58.396Z,6.00
2023-04-05T19:10:27.553Z,5.88
2023-04-05T19:12:55.534Z,5.89
2023-04-05T19:15:23.179Z,5.80
2023-04-05T19:17:51.157Z,5.74
2023-04-05T19:20:19.059Z,5.76
2023-04-05T19:22:46.727Z,5.72
2023-04-05T19:25:14.943Z,5.75
2023-04-05T19:27:44.020Z,5.68
2023-04-05T19:30:12.413Z,5.69
2023-04-05T19:32:40.308Z,5.67
2023-04-05T19:35:09.845Z,5.49
2023-04-05T19:37:37.527Z,5.52
2023-04-05T19:40:06.299Z,5.37
2023-04-05T19:42:34.061Z,5.35
2023-04-05T19:45:03.228Z,5.26
2023-04-05T19:47:31.378Z,5.25
2023-04-05T19:50:00.565Z,5.21
2023-04-05T19:52:40.823Z,5.17
2023-04-05T19:55:29.692Z,5.19
2023-04-05T19:57:58.088Z,5.19
2023-04-05T20:00:37.518Z,5.21
2023-04-05T20:03:18.944Z,5.21
2023-04-05T20:05:59.870Z,5.12
2023-04-05T20:08:28.205Z,5.00
2023-04-05T20:10:56.787Z,5.01
2023-04-05T20:13:24.543Z,4.98
2023-04-05T20:15:54.131Z,4.91
2023-04-05T20:18:23.691Z,4.92
2023-04-05T20:20:53.139Z,4.94
2023-04-05T20:23:22.695Z,4.95
2023-04-05T20:25:51.599Z,4.91
2023-04-05T20:28:34.737Z,5.03
2023-04-05T20:31:03.957Z,5.07
2023-04-05T20:33:46.518Z,5.05
2023-04-05T20:36:15.435Z,5.13
2023-04-05T20:38:44.834Z,5.19
2023-04-05T20:41:13.130Z,5.17
2023-04-05T20:43:41.759Z,5.14
2023-04-05T20:46:11.463Z,4.83
2023-04-05T20:48:39.400Z,4.72
2023-04-05T20:51:08.217Z,4.73
2023-04-05T20:53:37.214Z,4.72
2023-04-05T20:56:05.944Z,4.77
2023-04-05T20:58:33.754Z,4.81
2023-04-05T21:01:03.447Z,4.74
2023-04-05T21:03:33.553Z,4.66
2023-04-05T21:06:02.060Z,4.71
2023-04-05T21:08:30.717Z,4.64
2023-04-05T21:10:59.061Z,4.61
2023-04-05T21:13:26.989Z,4.50
2023-04-05T21:15:55.485Z,4.48
2023-04-05T21:18:23.722Z,4.41
2023-04-05T21:20:54.176Z,4.35
2023-04-05T21:23:23.687Z,4.42
2023-04-05T21:25:55.128Z,4.20
2023-04-05T21:28:24.992Z,4.20
2023-04-05T21:30:53.622Z,4.17
2023-04-05T21:33:21.387Z,4.28
2023-04-05T21:35:49.213Z,4.21
2023-04-05T21:38:18.489Z,4.19
2023-04-05T21:40:46.265Z,4.27
2023-04-05T21:43:14.093Z,4.17
2023-04-05T21:45:41.741Z,4.12
2023-04-05T21:48:09.742Z,4.19
2023-04-05T21:50:37.590Z,4.12
2023-04-05T21:53:07.324Z,4.00
2023-04-05T21:55:36.785Z,3.98
2023-04-05T21:58:04.649Z,3.86
2023-04-05T22:00:32.370Z,3.95
2023-04-05T22:03:00.176Z,3.85
2023-04-05T22:05:37.916Z,3.92
2023-04-05T22:08:07.412Z,3.75
2023-04-05T22:10:37.507Z,3.77
2023-04-05T22:13:05.359Z,3.79
2023-04-05T22:15:33.026Z,3.69
2023-04-05T22:18:00.905Z,3.70
2023-04-05T22:20:28.767Z,3.72
2023-04-05T22:22:56.514Z,3.80
2023-04-05T22:25:26.321Z,3.88
2023-04-05T22:27:59.640Z,3.84
2023-04-05T22:30:28.239Z,3.83
2023-04-05T22:32:56.597Z,3.83
2023-04-05T22:35:24.511Z,3.81
2023-04-05T22:37:52.265Z,3.77
2023-04-05T22:40:19.956Z,3.74
2023-04-05T22:42:47.590Z,3.75
2023-04-05T22:45:16.829Z,3.73
2023-04-05T22:47:44.564Z,3.59
2023-04-05T22:50:12.469Z,3.59
2023-04-05T22:52:40.282Z,3.61
2023-04-05T22:55:09.450Z,3.52
2023-04-05T22:57:37.226Z,3.56
2023-04-05T23:00:05.584Z,3.48
2023-04-05T23:02:34.630Z,3.45
2023-04-05T23:05:02.447Z,3.49
2023-04-05T23:07:30.182Z,3.41
2023-04-05T23:09:57.857Z,3.49
2023-04-05T23:12:25.625Z,3.43
2023-04-05T23:14:53.316Z,3.41
2023-04-05T23:17:21.449Z,3.38
2023-04-05T23:19:50.462Z,3.44
2023-04-05T23:22:18.184Z,3.48
2023-04-05T23:24:45.879Z,3.42
2023-04-05T23:27:13.562Z,3.02
2023-04-05T23:29:41.332Z,3.04
2023-04-05T23:32:12.608Z,3.00
2023-04-05T23:34:40.461Z,3.05
2023-04-05T23:37:09.516Z,3.07
2023-04-05T23:39:37.266Z,3.12
2023-04-05T23:42:05.388Z,3.12
2023-04-05T23:44:33.182Z,3.06
2023-04-05T23:47:01.162Z,3.06
2023-04-05T23:49:28.981Z,3.09
2023-04-05T23:51:56.615Z,2.98
2023-04-05T23:54:25.944Z,2.96
2023-04-05T23:56:53.856Z,3.00
2023-04-05T23:59:21.616Z,3.10
